Hlavní strana
METAR-TAF:

METAR-TAF

Letiště :

Fort Rucker, Alabama, Spojené státy americké

zeměpisná šířka: 31-21N, zeměpisná délka: 085-40W, výška: 97 m

Aktuální stav počasí

Zpráva byla vytvořena před 1 hodinou a 56 minutami, v 05:58 UTC
Východní vítr 6 kt
Teplota 13°C
Vlhkost vzduchu 72%
Tlak 1022 hPa
Viditelnost: 16.1 km
Oblačno až skoro zataženo ve výšce 5000 ft
Oblačno až skoro zataženo ve výšce 6000 ft

METAR: KHEY 080558Z AUTO 08006KT 10SM BKN050 BKN060 13/08 A3018 RMK AO2 SLP222 T01330078 10156 20133 401840092

Čas: 01:54 (07:54 UTC)


TAF: chybějící

Stav a předpovědi počasí z více než 4 000 letišť (zprávy METAR a TAF).

Červené a žluté tečky na mapě představují dostupné meteorologické stanice.

Když kurzor umístíte na tečku, zobrazí se název stanice.

Pak kliknutím zobrazíte stav a předpověď počasí.

Chcete-li změnit mapu, kliknutím na zelené tlačítko se znaménkem +mapu přiblížíte, kliknutím na zelené tlačítko se znaménkem – mapu oddálíte a kliknutím na zelené šipky přejdete na sousední mapy.


METAR-TAF: